logo
Search for airport 
image banner adimage banner adimage banner ad
image banner ad

HKTJ - Talex

Located in , Kenya

ICAO - , IATA -

Data provided by Airmate  

General information

Coordinates: S1°18'28" E36°28'55"
Elevation is 5044 feet MSL.
 
View others Airports in Nairobi Province

Operational data

Special qualification required
Current time UTC:
Current local time:
Weather at : HKNW - Nairobi Wilson ( 37 km )
METAR: HKNW 152200Z 00000KT 9999 BKN023 17/15 Q1023
TAF: TAF HKNW 151700Z 1518/1618 VRB02KT 9999 BKN022 BECMG 1521/1524 -RA BKN018 BKN080 BECMG 1608/1611 08010KT NSW FEW024CB BKN025 TEMPO 1614/1618 -TSRA FEW019CB BKN020 BKN080
View NOTAMs / SUP AIP / TFR affecting this airport [VIEW]
Communications frequencies: [VIEW]

Runways:

RWY identifierQFULength (ft)Width (ft)SurfaceLDA (ft)
1700UNK
3500UNK

Airport contact information

Address: Kenya

Satellite view of HKTJ